Portada
METAR-TAF:

METAR-TAF

Aeroports :

Knox County Regional Airport

Rockland, Maine, Estats Units d'Amèrica

latitud: 44-04N, longitud: 069-06W, altitud: 17 m

Observació

L'informe es va fer fa 10 minuts, a les 11:56 UTC
Vent 3 kt del Oest
Temperatura 9°C
Humitat 100%
Pressió 1024 hPa
Visibilitat: 1.6 km
boirina

METAR: KRKD 221156Z AUTO 26003KT 1SM BR VV004 09/09 A3025 RMK AO2 SLP244 T00890089 10139 20072 53013

Hora: 08:06 (12:06 UTC)

Pronòstic

L'informe es va fer fa 44 minuts, a les 11:22 UTC
Pronòstic vàlid del 22 a les 12 UTC al 23 a les 12 UTC
Vent 7 kt del Nord
Visibilitat: 0.8 km
Cel ennuvolat a una alçada de 400 ft
boira
A partir de les 22 a les 1300 UTC
Vent 7 kt del Nord
Visibilitat: 10 km
Núvols disperses a una alçada de 25000 ft
A partir de les 23 a les 0400 UTC
Vent kt del Nord
Visibilitat: 10 km
Cel cobert a una alçada de 9000 ft

TAF: KRKD 221122Z 2212/2312 35007KT 1/2SM FG BKN004 FM221300 36007KT P6SM SCT250 FM230400 00000KT P6SM OVC090

Observacions i pronòstics meteorològics de més de 4000 aeroports (METAR i TAF).

Les estacions disponibles són els punts grocs i vermells al mapa.

Posi el ratolí al punt desitjat per veure el nom de l'estació.

Feu clic per veure les observacions i els pronòstics meteorològics.

Per canviar el mapa: feu clic els botons verds amb una creu de color negre per apropar; al botó verd amb un guió per allunyar la imatge; o en les fletxes verdes per a mapes adjacents.


METAR-TAF: